Time;durP1;ratioP1;P1;durP2;ratioP2;P2;SDS_P1;SDS_P2;PMS_P1;PMS_P2;Temp;Humidity;BMP_temperature;BMP_pressure;BME280_temperature;BME280_humidity;BME280_pressure;Samples;Min_cycle;Max_cycle;Signal;HPM_P1;HPM_P2
2021/12/06 00:00:14;;;;;;;62.30;20.47;;;;;;;-0.69;69.72;99355.91;5034484;28;20143;-70
2021/12/06 00:02:41;;;;;;;63.35;19.88;;;;;;;-0.68;69.94;99365.63;5086783;28;20091;-68
2021/12/06 00:05:08;;;;;;;67.53;20.70;;;;;;;-0.66;69.77;99357.34;5069437;28;20040;-70
2021/12/06 00:07:34;;;;;;;56.28;20.13;;;;;;;-0.67;69.96;99369.94;5088571;28;20063;-69
2021/12/06 00:10:00;;;;;;;69.78;21.80;;;;;;;-0.72;69.66;99337.50;5086999;28;20040;-70
2021/12/06 00:12:27;;;;;;;64.35;21.05;;;;;;;-0.66;69.73;99357.34;5087827;28;20040;-69
2021/12/06 00:14:53;;;;;;;70.78;20.25;;;;;;;-0.65;69.71;99370.56;5069639;28;20044;-69
2021/12/06 00:17:19;;;;;;;61.15;21.08;;;;;;;-0.63;69.84;99364.97;5087121;28;20455;-68
2021/12/06 00:19:45;;;;;;;72.20;21.52;;;;;;;-0.64;70.02;99372.22;5068133;28;20048;-68
2021/12/06 00:22:14;;;;;;;64.07;21.08;;;;;;;-0.73;69.73;99347.44;5087760;28;20462;-68
2021/12/06 00:24:40;;;;;;;60.58;20.73;;;;;;;-0.62;69.59;99362.06;5087800;28;20480;-68
2021/12/06 00:27:07;;;;;;;64.13;21.13;;;;;;;-0.56;69.55;99357.72;5088983;28;20048;-69
2021/12/06 00:29:35;;;;;;;66.10;23.03;;;;;;;-0.60;69.66;99351.94;5080453;28;20036;-70
2021/12/06 00:32:03;;;;;;;62.75;19.98;;;;;;;-0.56;69.68;99357.72;5082165;28;20422;-69
2021/12/06 00:34:33;;;;;;;62.58;20.08;;;;;;;-0.51;69.57;99360.59;5088084;28;20549;-69
2021/12/06 00:37:17;;;;;;;62.35;20.92;;;;;;;-0.63;69.40;99338.94;5063285;28;20051;-68
2021/12/06 00:39:46;;;;;;;65.97;20.88;;;;;;;-0.50;69.26;99361.41;5080971;28;20052;-70
2021/12/06 00:42:12;;;;;;;62.10;20.42;;;;;;;-0.44;69.04;99364.09;5067521;28;20466;-69
2021/12/06 00:44:40;;;;;;;60.28;19.38;;;;;;;-0.47;69.08;99366.38;5087937;28;20186;-69
2021/12/06 00:47:07;;;;;;;60.75;18.83;;;;;;;-0.47;68.81;99361.00;5069417;28;20075;-69
2021/12/06 00:49:33;;;;;;;52.67;17.48;;;;;;;-0.47;68.63;99359.13;5089278;28;20040;-72
2021/12/06 00:52:00;;;;;;;48.50;18.50;;;;;;;-0.51;68.69;99355.22;5086189;28;20070;-70
2021/12/06 00:54:27;;;;;;;54.28;18.50;;;;;;;-0.49;68.59;99358.50;5053655;28;20531;-71
2021/12/06 00:56:53;;;;;;;52.10;18.88;;;;;;;-0.47;68.48;99353.78;5067920;28;20048;-71
2021/12/06 00:59:18;;;;;;;52.80;19.85;;;;;;;-0.50;68.61;99356.06;5066331;28;20045;-71
2021/12/06 01:01:46;;;;;;;48.43;17.47;;;;;;;-0.51;68.71;99359.78;5048621;28;20063;-71
2021/12/06 01:04:12;;;;;;;54.20;17.85;;;;;;;-0.55;68.73;99354.00;5060606;28;20159;-71
2021/12/06 01:06:38;;;;;;;53.60;18.50;;;;;;;-0.49;68.70;99346.94;5070982;28;20167;-71
2021/12/06 01:09:04;;;;;;;56.88;19.98;;;;;;;-0.54;68.67;99342.22;5092537;28;20559;-71
2021/12/06 01:11:30;;;;;;;54.47;19.73;;;;;;;-0.55;68.96;99343.25;5068980;28;20052;-71
2021/12/06 01:13:56;;;;;;;58.67;20.92;;;;;;;-0.52;68.71;99342.81;5070823;28;20071;-70
2021/12/06 01:16:22;;;;;;;60.08;20.92;;;;;;;-0.49;68.80;99346.94;5091271;28;20040;-70
2021/12/06 01:18:50;;;;;;;60.33;18.80;;;;;;;-0.51;68.91;99349.03;5055305;28;20057;-70
2021/12/06 01:21:26;;;;;;;63.40;18.85;;;;;;;-0.46;68.79;99349.19;5069967;28;20044;-71
2021/12/06 01:23:59;;;;;;;51.72;19.27;;;;;;;-0.47;68.53;99339.50;5058775;28;20093;-70
2021/12/06 01:32:00;;;;;;;44.83;17.17;;;;;;;-0.49;68.05;99338.88;5070773;28;20123;-71
2021/12/06 01:39:59;;;;;;;53.03;17.33;;;;;;;-0.56;68.09;99341.59;5065772;28;20334;-71
2021/12/06 01:42:25;;;;;;;53.60;18.67;;;;;;;-0.47;68.11;99367.19;5088434;28;20047;-70
2021/12/06 01:44:53;;;;;;;50.55;18.30;;;;;;;-0.50;67.97;99351.47;5064088;28;20052;-71
2021/12/06 01:47:24;;;;;;;46.80;16.35;;;;;;;-0.46;68.02;99368.84;5071281;28;20135;-70
2021/12/06 01:49:53;;;;;;;48.92;16.60;;;;;;;-0.44;67.93;99364.09;5073825;28;20056;-71
2021/12/06 01:52:24;;;;;;;56.53;18.48;;;;;;;-0.46;67.91;99365.31;5064951;28;20041;-70
2021/12/06 01:54:51;;;;;;;54.67;17.80;;;;;;;-0.46;67.81;99360.78;5073353;28;20051;-71
2021/12/06 01:57:18;;;;;;;49.58;18.15;;;;;;;-0.51;67.87;99362.47;5069398;28;20133;-71
2021/12/06 01:59:44;;;;;;;52.07;16.77;;;;;;;-0.53;68.19;99370.72;5086628;28;20071;-72
2021/12/06 02:02:11;;;;;;;49.80;16.90;;;;;;;-0.52;68.11;99372.38;5071591;28;20051;-70
2021/12/06 02:04:39;;;;;;;49.95;17.95;;;;;;;-0.52;68.20;99369.69;5069208;28;20050;-71
2021/12/06 02:07:12;;;;;;;57.03;19.52;;;;;;;-0.56;68.37;99365.78;5087322;28;20151;-71
2021/12/06 02:09:41;;;;;;;58.20;19.23;;;;;;;-0.52;68.35;99368.88;5068442;28;20040;-71
2021/12/06 02:12:11;;;;;;;66.90;21.83;;;;;;;-0.50;68.35;99374.84;5046287;28;20071;-70
2021/12/06 02:14:57;;;;;;;63.65;20.80;;;;;;;-0.53;68.38;99378.78;5070382;28;22399;-69
2021/12/06 02:17:29;;;;;;;69.68;21.23;;;;;;;-0.53;68.40;99378.78;5072050;28;20038;-70
2021/12/06 02:20:02;;;;;;;62.53;21.15;;;;;;;-0.49;68.27;99381.88;5079488;28;20074;-71
2021/12/06 02:22:33;;;;;;;58.13;20.10;;;;;;;-0.58;68.48;99379.41;5087479;28;20044;-71
2021/12/06 02:25:00;;;;;;;59.17;20.83;;;;;;;-0.61;68.75;99392.47;5086470;28;20050;-72
2021/12/06 02:27:29;;;;;;;61.85;20.35;;;;;;;-0.68;68.94;99381.72;5053873;28;20150;-72
2021/12/06 02:29:55;;;;;;;;;;;;;;;-0.73;68.95;99382.34;5070549;28;20044;-72
2021/12/06 02:32:22;;;;;;;57.88;18.63;;;;;;;-0.75;69.07;99378.22;5064451;28;20018;-71
2021/12/06 02:34:52;;;;;;;60.88;19.25;;;;;;;-0.72;68.76;99388.53;5069785;28;20047;-72
2021/12/06 02:37:20;;;;;;;56.58;20.08;;;;;;;-0.77;69.13;99388.34;5072254;28;20052;-72
2021/12/06 02:39:49;;;;;;;53.90;18.63;;;;;;;-0.72;68.93;99392.06;5043339;28;20052;-72
2021/12/06 02:42:16;;;;;;;61.42;20.33;;;;;;;-0.73;68.75;99386.88;5087716;28;20040;-72
2021/12/06 02:44:44;;;;;;;57.10;18.75;;;;;;;-0.69;68.80;99387.28;5070948;28;20040;-71
2021/12/06 02:47:11;;;;;;;61.30;20.85;;;;;;;-0.64;68.43;99387.47;5064550;28;20532;-72
2021/12/06 02:49:38;;;;;;;62.63;22.10;;;;;;;-0.69;68.49;99390.81;5072086;28;20052;-72
2021/12/06 02:52:06;;;;;;;58.28;19.98;;;;;;;-0.83;68.81;99378.47;5068565;28;20415;-72
2021/12/06 02:54:33;;;;;;;65.07;22.50;;;;;;;-0.74;68.82;99404.88;5071748;28;20055;-71
2021/12/06 02:59:35;;;;;;;63.22;20.58;;;;;;;-0.72;68.71;99408.16;5064489;28;21055;-72
2021/12/06 03:02:04;;;;;;;60.15;20.13;;;;;;;-0.74;68.56;99407.56;5047474;28;20061;-72
2021/12/06 03:04:31;;;;;;;50.38;19.02;;;;;;;-0.78;68.32;99397.44;5067455;28;20051;-72
2021/12/06 03:06:58;;;;;;;56.30;19.20;;;;;;;-0.69;68.11;99412.31;5071622;28;20082;-71
2021/12/06 03:09:29;;;;;;;53.10;17.65;;;;;;;-0.76;68.19;99409.63;5051409;28;20044;-71
2021/12/06 03:12:00;;;;;;;56.42;19.50;;;;;;;-0.75;68.14;99418.50;5070036;28;20044;-71
2021/12/06 03:14:34;;;;;;;51.42;17.48;;;;;;;-0.77;68.16;99426.78;5085358;28;20047;-71
2021/12/06 03:17:09;;;;;;;51.88;18.73;;;;;;;-0.74;67.93;99426.34;5069530;28;20039;-71
2021/12/06 03:19:35;;;;;;;50.80;17.90;;;;;;;-0.77;68.06;99426.78;5070546;28;20079;-71
2021/12/06 03:22:02;;;;;;;44.17;18.08;;;;;;;-0.77;68.06;99423.25;5062072;28;20102;-72
2021/12/06 03:24:29;;;;;;;48.25;18.58;;;;;;;-0.71;67.71;99427.78;5050025;28;20041;-71
2021/12/06 03:26:55;;;;;;;37.90;14.33;;;;;;;-0.68;67.57;99431.91;5066466;28;20084;-71
2021/12/06 03:29:23;;;;;;;43.87;16.10;;;;;;;-0.69;67.52;99435.63;5070715;28;20131;-70
2021/12/06 03:31:50;;;;;;;43.30;15.82;;;;;;;-0.75;67.48;99435.44;5048586;28;20671;-73
2021/12/06 03:34:19;;;;;;;40.72;14.63;;;;;;;-0.92;67.63;99413.56;5064940;28;20056;-71
2021/12/06 03:36:47;;;;;;;39.13;16.30;;;;;;;-0.81;67.55;99430.09;5068831;28;20121;-71
2021/12/06 03:39:23;;;;;;;42.70;16.23;;;;;;;-0.78;67.34;99430.50;5069914;28;20055;-70
2021/12/06 03:41:51;;;;;;;43.20;15.90;;;;;;;-0.77;67.25;99428.63;5050445;28;20535;-70
2021/12/06 03:44:16;;;;;;;;;;;;;;;-0.83;67.25;99427.59;5067221;28;20048;-71
2021/12/06 03:46:44;;;;;;;40.97;14.68;;;;;;;-0.85;67.20;99432.34;5071355;28;19924;-72
2021/12/06 03:49:13;;;;;;;45.22;16.05;;;;;;;-0.82;67.03;99439.19;5067283;28;20068;-71
2021/12/06 03:51:42;;;;;;;44.58;15.98;;;;;;;-0.80;67.19;99443.28;5067847;28;20055;-72
2021/12/06 03:54:08;;;;;;;35.75;14.52;;;;;;;-0.83;67.10;99438.34;5049971;28;20047;-71
2021/12/06 03:56:38;;;;;;;42.05;15.80;;;;;;;-0.82;66.94;99434.63;5068648;28;20052;-71
2021/12/06 03:59:04;;;;;;;52.42;16.80;;;;;;;-0.82;67.08;99440.00;5043807;28;20051;-71
2021/12/06 04:01:31;;;;;;;44.67;16.93;;;;;;;-0.79;66.91;99446.81;5050828;28;20515;-71
2021/12/06 04:03:57;;;;;;;44.70;16.75;;;;;;;-0.75;67.07;99442.66;5057619;28;20135;-71
2021/12/06 04:06:25;;;;;;;49.92;18.55;;;;;;;-0.69;67.11;99451.75;5068334;28;20135;-71
2021/12/06 04:08:51;;;;;;;51.83;20.02;;;;;;;-0.71;67.01;99451.94;5081457;28;20056;-72
2021/12/06 04:11:18;;;;;;;48.67;18.98;;;;;;;-0.72;67.11;99456.50;5077530;28;20397;-72
2021/12/06 04:13:46;;;;;;;50.40;18.75;;;;;;;-0.71;67.28;99462.69;5049479;28;20131;-71
2021/12/06 04:16:14;;;;;;;46.97;18.10;;;;;;;-0.73;66.94;99452.16;5050663;28;20512;-72
2021/12/06 04:18:41;;;;;;;42.78;16.98;;;;;;;-0.73;67.00;99462.91;5067714;28;20048;-72
2021/12/06 04:21:07;;;;;;;44.83;16.38;;;;;;;-0.75;66.69;99467.66;5086810;28;20054;-72
2021/12/06 04:23:34;;;;;;;42.95;15.77;;;;;;;-0.83;66.96;99467.06;5084519;28;20143;-71
2021/12/06 04:26:01;;;;;;;40.42;14.60;;;;;;;-0.93;66.91;99478.22;5031162;28;20044;-73
2021/12/06 04:28:29;;;;;;;40.75;14.85;;;;;;;-0.92;66.86;99474.50;5033497;28;20103;-73
2021/12/06 04:30:56;;;;;;;34.42;12.95;;;;;;;-0.94;66.77;99463.97;5081580;28;20075;-72
2021/12/06 04:33:23;;;;;;;38.92;14.50;;;;;;;-0.85;66.65;99478.00;5045924;28;20485;-74
2021/12/06 04:35:50;;;;;;;41.20;16.52;;;;;;;-0.83;66.73;99477.81;5063463;28;20048;-71
2021/12/06 04:38:16;;;;;;;42.90;15.75;;;;;;;-0.88;66.75;99478.41;5069016;28;20173;-72
2021/12/06 04:40:44;;;;;;;43.63;16.15;;;;;;;-0.88;67.00;99478.41;5050738;28;20430;-72
2021/12/06 04:43:10;;;;;;;45.45;17.38;;;;;;;-0.88;66.94;99479.22;5065786;28;20105;-71
2021/12/06 04:45:37;;;;;;;41.50;15.55;;;;;;;-0.97;67.05;99480.47;5068192;28;20039;-71
2021/12/06 04:48:04;;;;;;;37.88;15.38;;;;;;;-0.88;66.98;99494.53;5071735;28;20165;-74
2021/12/06 04:50:32;;;;;;;47.28;15.90;;;;;;;-0.83;66.86;99491.22;5056097;28;20040;-72
2021/12/06 04:53:04;;;;;;;38.20;14.73;;;;;;;-0.84;67.04;99482.34;5071936;28;20054;-72
2021/12/06 04:55:34;;;;;;;38.37;14.33;;;;;;;-0.84;66.55;99487.69;5070640;28;20044;-72
2021/12/06 04:58:03;;;;;;;38.85;14.40;;;;;;;-0.86;66.88;99487.94;5070721;28;20067;-71
2021/12/06 05:00:33;;;;;;;44.20;16.23;;;;;;;-0.83;66.83;99486.66;5068019;28;20036;-70
2021/12/06 05:03:00;;;;;;;49.28;15.63;;;;;;;-0.84;66.84;99494.94;5073159;28;20076;-70
2021/12/06 05:05:30;;;;;;;39.78;15.07;;;;;;;-0.91;66.84;99479.66;5065206;28;20141;-72
2021/12/06 05:08:03;;;;;;;37.63;14.75;;;;;;;-0.88;66.92;99495.34;5053492;28;20044;-73
2021/12/06 05:10:30;;;;;;;37.10;14.93;;;;;;;-0.84;66.92;99494.94;5053198;28;20044;-66
2021/12/06 05:12:56;;;;;;;35.60;14.00;;;;;;;-0.83;66.95;99494.72;5086948;28;20048;-68
2021/12/06 05:15:27;;;;;;;39.75;12.40;;;;;;;-0.87;67.08;99502.34;5061230;28;20932;-67
2021/12/06 05:17:53;;;;;;;33.78;13.20;;;;;;;-0.87;67.24;99501.53;5068283;28;20130;-69
2021/12/06 05:20:19;;;;;;;35.47;11.75;;;;;;;-0.91;67.28;99498.44;5071545;28;20051;-68
2021/12/06 05:22:48;;;;;;;28.33;11.65;;;;;;;-0.91;67.24;99501.13;5072109;28;20393;-67
2021/12/06 05:25:14;;;;;;;30.45;11.52;;;;;;;-0.89;67.14;99509.78;5071234;28;20044;-67
2021/12/06 05:27:42;;;;;;;37.42;11.63;;;;;;;-0.92;67.28;99502.16;5065395;28;20040;-68
2021/12/06 05:30:11;;;;;;;31.20;11.35;;;;;;;-0.99;67.21;99498.66;5055915;28;20110;-69
2021/12/06 05:32:41;;;;;;;32.28;12.00;;;;;;;-0.99;67.08;99504.03;5071322;28;20044;-68
2021/12/06 05:35:08;;;;;;;27.57;10.53;;;;;;;-1.04;67.09;99503.81;5068425;28;20044;-67
2021/12/06 05:37:39;;;;;;;31.70;10.70;;;;;;;-1.15;67.20;99495.34;5090616;28;20052;-68
2021/12/06 05:40:08;;;;;;;31.55;11.73;;;;;;;-1.21;67.25;99498.84;5091742;28;20043;-67
2021/12/06 05:42:34;;;;;;;30.60;10.97;;;;;;;-1.19;67.32;99501.31;5069551;28;20458;-68
2021/12/06 05:45:00;;;;;;;29.23;12.25;;;;;;;-1.18;67.21;99503.78;5081689;28;20428;-69
2021/12/06 05:47:26;;;;;;;30.75;12.13;;;;;;;-1.23;67.36;99513.50;5074059;28;20059;-69
2021/12/06 05:49:53;;;;;;;30.33;11.97;;;;;;;-1.26;67.41;99513.88;5090720;28;20062;-69
2021/12/06 05:52:19;;;;;;;31.25;11.18;;;;;;;-1.32;67.32;99521.72;5089150;28;20054;-68
2021/12/06 05:54:45;;;;;;;38.50;12.30;;;;;;;-1.34;67.42;99518.44;5072501;28;20594;-67
2021/12/06 05:57:12;;;;;;;33.97;12.10;;;;;;;-1.37;67.51;99507.28;5081600;28;20052;-67
2021/12/06 05:59:39;;;;;;;40.50;12.43;;;;;;;-1.36;67.28;99509.75;5073077;28;20146;-67
2021/12/06 06:02:06;;;;;;;36.95;13.75;;;;;;;-1.51;67.30;99485.78;5067846;28;20059;-68
2021/12/06 06:04:33;;;;;;;37.17;13.75;;;;;;;-1.35;67.29;99521.31;5090043;28;20101;-67
2021/12/06 06:07:01;;;;;;;35.43;12.80;;;;;;;-1.37;67.36;99518.84;5058305;28;20051;-66
2021/12/06 06:09:27;;;;;;;30.92;11.45;;;;;;;-1.38;67.16;99517.19;5072189;28;20413;-68
2021/12/06 06:11:53;;;;;;;35.27;11.90;;;;;;;-1.44;67.19;99515.31;5064624;28;20044;-68
2021/12/06 06:14:18;;;;;;;36.03;11.97;;;;;;;-1.46;67.22;99515.53;5090691;28;20070;-68
2021/12/06 06:16:50;;;;;;;34.37;11.63;;;;;;;-1.45;67.16;99530.59;5091960;28;20508;-67
2021/12/06 06:19:18;;;;;;;31.95;10.80;;;;;;;-1.45;67.21;99533.25;5080458;28;20056;-68
2021/12/06 06:21:44;;;;;;;29.73;11.48;;;;;;;-1.39;67.04;99538.84;5080334;28;20044;-69
2021/12/06 06:24:11;;;;;;;28.98;9.95;;;;;;;-1.37;66.74;99534.94;5071844;28;20048;-68
2021/12/06 06:26:38;;;;;;;20.88;7.82;;;;;;;-1.43;66.63;99533.03;5056183;28;20037;-67
2021/12/06 06:29:04;;;;;;;21.98;8.30;;;;;;;-1.43;66.48;99539.25;5061938;28;20507;-69
2021/12/06 06:31:30;;;;;;;21.77;7.43;;;;;;;-1.50;66.53;99546.44;5087251;28;20042;-69
2021/12/06 06:33:56;;;;;;;20.48;7.70;;;;;;;-1.55;66.54;99540.06;5090326;28;20048;-69
2021/12/06 06:36:22;;;;;;;21.27;8.83;;;;;;;-1.64;66.59;99542.06;5070297;28;20135;-68
2021/12/06 06:38:48;;;;;;;21.63;7.80;;;;;;;-1.69;66.80;99556.09;5078690;28;20493;-67
2021/12/06 06:41:16;;;;;;;22.17;7.77;;;;;;;-1.72;66.95;99553.78;5083492;28;20143;-69
2021/12/06 06:43:42;;;;;;;27.52;8.80;;;;;;;-1.77;67.10;99550.88;5085998;28;20094;-69
2021/12/06 06:46:08;;;;;;;24.80;8.13;;;;;;;-1.81;67.08;99560.34;5083191;28;20044;-69
2021/12/06 06:48:34;;;;;;;24.00;8.33;;;;;;;-1.95;67.51;99568.34;5072041;28;20045;-68
2021/12/06 06:51:00;;;;;;;23.23;8.30;;;;;;;-2.05;67.75;99549.94;5083389;28;20067;-68
2021/12/06 06:53:29;;;;;;;21.80;7.20;;;;;;;-1.96;67.52;99571.19;5071622;28;20512;-67
2021/12/06 06:55:56;;;;;;;23.80;8.37;;;;;;;-1.93;67.38;99570.81;5069433;28;20428;-68
2021/12/06 06:58:23;;;;;;;21.73;7.90;;;;;;;-1.92;67.18;99575.97;5079336;28;20049;-68
2021/12/06 07:00:49;;;;;;;;;;;;;;;-1.86;66.96;99575.19;5081326;28;20067;-69
2021/12/06 07:03:15;;;;;;;17.93;7.70;;;;;;;-1.93;66.87;99574.31;5084666;28;19963;-68
2021/12/06 07:05:42;;;;;;;25.67;8.17;;;;;;;-1.98;67.00;99573.25;5045813;28;20067;-70
2021/12/06 07:08:08;;;;;;;21.33;8.77;;;;;;;-1.97;67.08;99582.94;5087200;28;20064;-70
2021/12/06 07:10:34;;;;;;;23.77;8.67;;;;;;;-2.11;67.29;99564.09;5065323;28;20040;-69
2021/12/06 07:13:07;;;;;;;23.23;8.60;;;;;;;-2.10;67.40;99575.66;5045392;28;20407;-70
2021/12/06 07:15:36;;;;;;;25.20;9.30;;;;;;;-2.21;67.52;99583.22;5089609;28;20040;-70
2021/12/06 07:18:03;;;;;;;23.90;9.27;;;;;;;-2.17;67.56;99578.31;5072103;28;20171;-70
2021/12/06 07:20:32;;;;;;;25.42;8.45;;;;;;;-2.16;67.41;99585.31;5087919;28;20052;-70
2021/12/06 07:22:58;;;;;;;32.07;11.53;;;;;;;-2.16;67.49;99594.19;5053680;28;20433;-70
2021/12/06 07:25:24;;;;;;;27.50;10.80;;;;;;;-2.17;67.42;99578.31;5086251;28;20040;-70
2021/12/06 07:27:52;;;;;;;29.03;11.10;;;;;;;-2.12;67.48;99591.13;5090936;28;20078;-70
2021/12/06 07:30:19;;;;;;;25.90;9.93;;;;;;;-2.08;67.33;99589.69;5089333;28;20198;-69
2021/12/06 07:32:47;;;;;;;34.42;12.70;;;;;;;-2.09;67.53;99586.19;5079352;28;20087;-69
2021/12/06 07:35:14;;;;;;;36.90;13.03;;;;;;;-2.09;67.43;99596.06;5085624;28;20065;-70
2021/12/06 07:37:40;;;;;;;32.60;12.55;;;;;;;-2.09;67.63;99604.97;5076215;28;20048;-69
2021/12/06 07:40:09;;;;;;;34.83;13.30;;;;;;;-2.11;67.70;99611.53;5080052;28;20053;-74
2021/12/06 07:42:36;;;;;;;37.83;15.03;;;;;;;-2.20;67.98;99608.97;5073735;28;20071;-73
2021/12/06 07:45:03;;;;;;;36.92;14.55;;;;;;;-2.20;67.93;99613.53;5030106;28;20047;-74
2021/12/06 07:47:29;;;;;;;34.38;13.52;;;;;;;-2.30;68.05;99585.22;5047636;28;20420;-72
2021/12/06 07:49:57;;;;;;;44.43;14.57;;;;;;;-2.26;68.16;99599.06;5048283;28;20044;-72
2021/12/06 07:52:23;;;;;;;37.28;15.10;;;;;;;-2.28;68.31;99599.25;5075267;28;20049;-72
2021/12/06 07:54:48;;;;;;;38.67;15.80;;;;;;;-2.29;68.20;99597.59;5082659;28;20062;-72
2021/12/06 07:57:14;;;;;;;37.77;15.63;;;;;;;-2.15;68.25;99598.53;5075545;28;20043;-74
2021/12/06 07:59:40;;;;;;;42.70;16.37;;;;;;;-2.11;68.03;99595.44;5052076;28;20112;-73
2021/12/06 08:02:08;;;;;;;39.20;15.67;;;;;;;-2.05;67.99;99590.13;5084192;28;20530;-74
2021/12/06 08:04:34;;;;;;;39.70;16.13;;;;;;;-2.06;67.89;99611.75;5061279;28;20040;-73
2021/12/06 08:07:04;;;;;;;42.50;14.70;;;;;;;-2.16;67.96;99606.75;5087409;28;20076;-74
2021/12/06 08:09:30;;;;;;;43.10;15.83;;;;;;;-2.25;68.33;99606.06;5091983;28;20048;-73
2021/12/06 08:11:58;;;;;;;45.50;16.00;;;;;;;-2.24;68.30;99604.25;5074190;28;20052;-73
2021/12/06 08:14:24;;;;;;;40.35;15.02;;;;;;;-2.21;68.15;99610.00;5074335;28;20052;-72
2021/12/06 08:16:51;;;;;;;40.23;14.43;;;;;;;-2.09;67.84;99620.19;5069494;28;20040;-73
2021/12/06 08:19:17;;;;;;;42.38;16.13;;;;;;;-2.03;67.86;99619.41;5092048;28;20047;-73
2021/12/06 08:21:44;;;;;;;41.10;14.87;;;;;;;-1.99;67.57;99607.28;5087251;28;20044;-71
2021/12/06 08:24:11;;;;;;;36.90;14.33;;;;;;;-1.96;67.54;99616.75;5092734;28;20085;-73
2021/12/06 08:26:41;;;;;;;36.95;14.27;;;;;;;-1.94;67.37;99636.19;5080083;28;20059;-72
2021/12/06 08:29:12;;;;;;;38.03;14.27;;;;;;;-2.07;67.39;99631.53;5092511;28;20081;-72
2021/12/06 08:31:41;;;;;;;37.93;15.73;;;;;;;-2.21;67.63;99619.91;5084670;28;20496;-72
2021/12/06 08:34:07;;;;;;;38.63;15.13;;;;;;;-2.24;67.60;99633.69;5086136;28;20047;-73
2021/12/06 08:36:33;;;;;;;36.73;14.07;;;;;;;-2.31;67.99;99633.66;5070215;28;20488;-72
2021/12/06 08:38:59;;;;;;;38.67;14.40;;;;;;;-2.34;67.85;99642.06;5095269;28;20052;-73
2021/12/06 08:41:28;;;;;;;38.73;15.00;;;;;;;-2.45;67.90;99638.06;5085163;28;20139;-73
2021/12/06 08:43:56;;;;;;;36.80;14.30;;;;;;;-2.46;67.91;99647.09;5084828;28;20048;-72
2021/12/06 08:46:25;;;;;;;34.92;13.32;;;;;;;-2.51;67.88;99655.72;5060398;28;20090;-72
2021/12/06 08:48:53;;;;;;;32.37;12.83;;;;;;;-2.57;67.90;99651.97;5079977;28;20064;-73
2021/12/06 08:51:23;;;;;;;37.42;13.50;;;;;;;-2.58;67.96;99654.84;5084960;28;20036;-72
2021/12/06 08:53:51;;;;;;;36.00;13.17;;;;;;;-2.60;67.89;99652.34;5090335;28;20066;-73
2021/12/06 08:56:18;;;;;;;36.17;13.93;;;;;;;-2.62;67.71;99649.03;5039775;28;20573;-74
2021/12/06 08:58:45;;;;;;;37.07;13.83;;;;;;;-2.67;67.61;99626.53;5086770;28;20044;-71
2021/12/06 09:01:12;;;;;;;39.13;13.73;;;;;;;-2.51;67.40;99641.50;5051403;28;20134;-71
2021/12/06 09:03:38;;;;;;;38.25;13.98;;;;;;;-2.48;67.25;99630.41;5091046;28;20044;-71
2021/12/06 09:06:08;;;;;;;37.77;13.67;;;;;;;-2.45;67.13;99640.72;5087345;28;20052;-70
2021/12/06 09:08:35;;;;;;;42.00;15.83;;;;;;;-2.50;67.31;99635.13;5080725;28;20106;-70
2021/12/06 09:11:02;;;;;;;44.60;14.90;;;;;;;-2.44;67.19;99643.22;5069284;28;20040;-72
2021/12/06 09:13:29;;;;;;;39.90;15.30;;;;;;;-2.42;67.08;99637.66;5068526;28;20044;-74
2021/12/06 09:15:59;;;;;;;40.20;14.65;;;;;;;-2.39;67.06;99644.50;5060762;28;20135;-75
2021/12/06 09:18:34;;;;;;;48.23;16.10;;;;;;;-2.44;67.06;99632.50;5069063;28;20064;-74
2021/12/06 09:21:02;;;;;;;39.80;15.03;;;;;;;-2.35;66.97;99633.19;5069668;28;20099;-76
2021/12/06 09:23:28;;;;;;;49.67;17.33;;;;;;;-2.33;66.93;99641.06;5067302;28;20135;-75
2021/12/06 09:26:11;;;;;;;46.53;16.73;;;;;;;-2.34;67.11;99637.53;5091134;28;20048;-75
2021/12/06 09:28:40;;;;;;;41.70;14.97;;;;;;;-2.35;67.15;99645.75;5039727;28;20111;-75
2021/12/06 09:31:09;;;;;;;42.57;15.00;;;;;;;-2.51;67.27;99631.63;5070246;28;20036;-75
2021/12/06 09:33:39;;;;;;;41.73;14.30;;;;;;;-2.55;67.52;99642.94;5092106;28;20479;-76
2021/12/06 09:36:06;;;;;;;40.17;13.70;;;;;;;-2.63;67.52;99634.00;5071713;28;20044;-75
2021/12/06 09:38:38;;;;;;;35.45;11.48;;;;;;;-2.71;67.60;99636.81;5086178;28;20048;-73
2021/12/06 09:41:10;;;;;;;32.60;11.27;;;;;;;-2.77;67.71;99642.91;5094125;28;20488;-75
2021/12/06 09:43:39;;;;;;;35.33;12.90;;;;;;;-2.83;67.84;99641.81;5076003;28;20118;-76
2021/12/06 09:46:06;;;;;;;34.90;13.10;;;;;;;-2.78;67.97;99650.13;5063463;28;20098;-75
2021/12/06 09:48:35;;;;;;;35.33;13.70;;;;;;;-2.78;67.85;99639.44;5086462;28;20052;-75
2021/12/06 09:51:06;;;;;;;38.00;14.53;;;;;;;-2.78;68.09;99630.56;5084740;28;20494;-75
2021/12/06 09:53:35;;;;;;;39.63;14.40;;;;;;;-2.71;68.09;99642.97;5084318;28;20575;-75
2021/12/06 09:56:05;;;;;;;37.47;13.73;;;;;;;-2.68;68.00;99643.63;5074265;28;20101;-74
2021/12/06 09:58:32;;;;;;;37.83;14.10;;;;;;;-2.59;67.69;99655.88;5087568;28;20036;-75
2021/12/06 10:01:04;;;;;;;37.38;14.07;;;;;;;-2.57;67.89;99657.34;5069159;28;20040;-75
2021/12/06 10:03:30;;;;;;;37.47;14.10;;;;;;;-2.64;67.79;99651.09;5088071;28;20044;-74
2021/12/06 10:06:02;;;;;;;35.13;13.47;;;;;;;-2.61;67.90;99661.41;5089687;28;20485;-75
2021/12/06 10:08:29;;;;;;;43.97;14.33;;;;;;;-2.53;67.91;99655.09;5091226;28;20395;-75
2021/12/06 10:10:55;;;;;;;42.03;15.75;;;;;;;-2.60;67.61;99638.16;5091320;28;20055;-75
2021/12/06 10:13:22;;;;;;;41.93;15.23;;;;;;;-2.44;67.82;99658.44;5089495;28;20044;-74
2021/12/06 10:15:50;;;;;;;36.30;14.47;;;;;;;-2.42;67.58;99649.22;5079213;28;20059;-75
2021/12/06 10:18:18;;;;;;;38.63;14.57;;;;;;;-2.38;67.44;99646.16;5085279;28;20485;-76
2021/12/06 10:20:45;;;;;;;45.20;15.52;;;;;;;-2.42;67.55;99633.16;5061384;28;20139;-75
2021/12/06 10:23:14;;;;;;;43.17;15.23;;;;;;;-2.37;67.54;99640.59;5073139;28;20044;-75
2021/12/06 10:25:42;;;;;;;37.17;14.53;;;;;;;-2.36;67.76;99642.25;5084995;28;20047;-74
2021/12/06 10:28:09;;;;;;;42.37;14.97;;;;;;;-2.34;67.45;99650.94;5091807;28;20101;-75
2021/12/06 10:30:38;;;;;;;41.57;14.77;;;;;;;-2.37;67.57;99651.31;5061918;28;20450;-74
2021/12/06 10:33:06;;;;;;;46.60;16.60;;;;;;;-2.44;67.75;99658.44;5065779;28;20408;-70
2021/12/06 10:35:32;;;;;;;44.17;14.73;;;;;;;-2.50;67.71;99649.34;5046301;28;20474;-72
2021/12/06 10:37:59;;;;;;;43.87;15.70;;;;;;;-2.53;67.88;99638.22;5064023;28;20048;-70
2021/12/06 10:40:29;;;;;;;47.40;16.13;;;;;;;-2.51;68.00;99645.00;5060966;28;20173;-69
2021/12/06 10:42:59;;;;;;;45.27;15.00;;;;;;;-2.49;67.76;99651.03;5068537;28;20518;-69
2021/12/06 10:45:30;;;;;;;43.00;16.07;;;;;;;-2.39;67.51;99639.97;5078005;28;20082;-69
2021/12/06 10:48:08;;;;;;;42.63;16.13;;;;;;;-2.30;67.53;99654.06;5067875;28;20040;-69
2021/12/06 10:50:41;;;;;;;46.27;17.37;;;;;;;-2.25;67.30;99648.13;5081445;28;20050;-70
2021/12/06 10:53:19;;;;;;;43.60;16.20;;;;;;;-2.25;67.49;99648.94;5091913;28;20500;-69
2021/12/06 10:55:48;;;;;;;48.33;17.05;;;;;;;-2.26;67.32;99652.63;5087004;28;20044;-69
2021/12/06 10:58:17;;;;;;;48.80;17.43;;;;;;;-2.22;67.32;99650.41;5079995;28;20047;-69
2021/12/06 11:00:48;;;;;;;52.57;17.33;;;;;;;-2.30;67.39;99652.19;5081516;28;20063;-68
2021/12/06 11:03:26;;;;;;;48.67;18.70;;;;;;;-2.23;67.36;99660.28;5087210;28;20546;-68
2021/12/06 11:05:57;;;;;;;48.77;18.23;;;;;;;-2.26;67.39;99671.38;5065669;28;20071;-69
2021/12/06 11:08:23;;;;;;;42.70;17.00;;;;;;;-2.25;67.65;99667.69;5086190;28;20044;-68
2021/12/06 11:10:54;;;;;;;58.77;18.10;;;;;;;-2.25;67.56;99666.88;5050113;28;20040;-69
2021/12/06 11:13:24;;;;;;;52.23;18.80;;;;;;;-2.22;67.55;99669.97;5079760;28;20317;-69
2021/12/06 11:15:56;;;;;;;50.50;19.00;;;;;;;-2.22;67.59;99667.28;5083228;28;20385;-67
2021/12/06 11:18:33;;;;;;;48.70;17.77;;;;;;;-2.21;67.57;99657.41;5087262;28;20043;-69
2021/12/06 11:21:02;;;;;;;50.10;17.65;;;;;;;-2.13;67.48;99665.28;5069088;28;20040;-68
2021/12/06 11:23:29;;;;;;;52.03;18.37;;;;;;;-2.09;67.17;99665.75;5086853;28;20521;-68
2021/12/06 11:25:59;;;;;;;47.57;18.27;;;;;;;-2.09;67.30;99671.94;5082842;28;20135;-69
2021/12/06 11:28:27;;;;;;;52.23;19.20;;;;;;;-2.06;67.27;99678.75;5081278;28;20037;-69
2021/12/06 11:30:57;;;;;;;;;;;;;;;-2.06;67.25;99684.94;5079038;28;20472;-71
2021/12/06 11:33:28;;;;;;;48.23;17.10;;;;;;;-2.12;67.29;99685.72;5069837;28;19927;-71
2021/12/06 11:35:55;;;;;;;51.43;18.70;;;;;;;-2.11;67.36;99690.03;5070470;28;20072;-71